createdAt,value
2022-12-11T00:01:16.150Z,35.08
2022-12-11T00:02:49.328Z,33.22
2022-12-11T00:04:22.199Z,32.13
2022-12-11T00:05:55.277Z,35.90
2022-12-11T00:07:28.036Z,35.05
2022-12-11T00:09:00.826Z,36.78
2022-12-11T00:10:37.683Z,34.35
2022-12-11T00:12:10.812Z,35.85
2022-12-11T00:13:43.810Z,36.17
2022-12-11T00:15:16.772Z,35.58
2022-12-11T00:16:48.985Z,37.33
2022-12-11T00:18:21.819Z,36.35
2022-12-11T00:19:54.522Z,36.45
2022-12-11T00:21:27.638Z,35.08
2022-12-11T00:23:00.361Z,34.50
2022-12-11T00:24:33.379Z,35.97
2022-12-11T00:26:06.910Z,35.30
2022-12-11T00:27:40.034Z,35.10
2022-12-11T00:29:14.480Z,35.58
2022-12-11T00:30:48.185Z,38.42
2022-12-11T00:32:20.891Z,36.50
2022-12-11T00:33:53.715Z,34.45
2022-12-11T00:35:25.531Z,32.45
2022-12-11T00:36:59.861Z,31.98
2022-12-11T00:38:32.634Z,31.95
2022-12-11T00:40:06.166Z,33.58
2022-12-11T00:41:38.899Z,32.47
2022-12-11T00:43:11.259Z,33.65
2022-12-11T00:44:43.956Z,36.22
2022-12-11T00:46:15.969Z,30.58
2022-12-11T00:47:48.763Z,34.45
2022-12-11T00:49:21.478Z,35.17
2022-12-11T00:50:54.226Z,35.95
2022-12-11T00:52:28.336Z,34.83
2022-12-11T00:54:01.126Z,34.35
2022-12-11T00:55:37.991Z,32.92
2022-12-11T00:57:10.723Z,32.20
2022-12-11T00:58:43.595Z,34.20
2022-12-11T01:00:15.758Z,32.22
2022-12-11T01:01:48.527Z,38.38
2022-12-11T01:03:20.329Z,33.20
2022-12-11T01:04:53.031Z,33.05
2022-12-11T01:06:28.038Z,31.65
2022-12-11T01:08:02.145Z,34.35
2022-12-11T01:09:52.650Z,36.17
2022-12-11T01:11:25.407Z,38.53
2022-12-11T01:13:00.392Z,38.22
2022-12-11T01:14:33.124Z,38.25
2022-12-11T01:16:11.290Z,40.38
2022-12-11T01:17:44.031Z,40.13
2022-12-11T01:19:16.864Z,39.60
2022-12-11T01:20:49.618Z,42.85
2022-12-11T01:22:21.383Z,43.05
2022-12-11T01:23:55.467Z,41.95
2022-12-11T01:25:29.334Z,36.58
2022-12-11T01:27:02.391Z,40.00
2022-12-11T01:28:35.535Z,39.05
2022-12-11T01:30:09.919Z,37.80
2022-12-11T01:31:42.715Z,40.63
2022-12-11T01:33:15.505Z,37.28
2022-12-11T01:34:48.223Z,36.92
2022-12-11T01:36:22.431Z,42.55
2022-12-11T01:37:55.245Z,37.53
2022-12-11T01:39:29.549Z,39.50
2022-12-11T01:41:01.292Z,39.40
2022-12-11T01:42:34.588Z,44.00
2022-12-11T01:44:28.623Z,40.33
2022-12-11T01:46:02.170Z,41.78
2022-12-11T01:47:34.968Z,35.47
2022-12-11T01:49:12.711Z,38.88
2022-12-11T01:50:48.245Z,35.42
2022-12-11T01:52:23.516Z,35.70
2022-12-11T01:54:01.067Z,40.45
2022-12-11T01:55:37.023Z,35.85
2022-12-11T01:57:12.272Z,40.28
2022-12-11T01:58:48.974Z,42.58
2022-12-11T02:00:22.448Z,46.05
2022-12-11T02:01:59.358Z,48.03
2022-12-11T02:03:32.688Z,51.00
2022-12-11T02:05:07.273Z,45.85
2022-12-11T02:06:42.648Z,42.67
2022-12-11T02:08:16.033Z,51.03
2022-12-11T02:09:48.537Z,47.42
2022-12-11T02:11:26.841Z,53.63
2022-12-11T02:13:06.019Z,45.08
2022-12-11T02:14:45.554Z,40.20
2022-12-11T02:16:25.249Z,42.25
2022-12-11T02:18:08.363Z,42.67
2022-12-11T02:19:56.779Z,36.38
2022-12-11T02:21:34.759Z,40.88
2022-12-11T02:23:24.055Z,40.63
2022-12-11T02:25:10.677Z,38.08
2022-12-11T02:27:08.958Z,39.88
2022-12-11T02:28:47.582Z,40.22
2022-12-11T02:30:20.532Z,38.42
2022-12-11T02:31:58.878Z,43.05
2022-12-11T02:33:37.079Z,43.22
2022-12-11T02:35:14.551Z,40.60
2022-12-11T02:36:51.833Z,43.22
2022-12-11T02:38:29.187Z,42.58
2022-12-11T02:40:04.061Z,37.38
2022-12-11T02:41:38.101Z,40.05
2022-12-11T02:43:14.212Z,40.78
2022-12-11T02:44:50.487Z,39.88
2022-12-11T02:46:24.689Z,37.08
2022-12-11T02:47:59.807Z,37.65
2022-12-11T02:49:34.805Z,43.10
2022-12-11T02:51:08.682Z,41.90
2022-12-11T02:52:43.658Z,40.05
2022-12-11T02:54:21.530Z,39.28
2022-12-11T02:56:02.910Z,37.88
2022-12-11T02:57:40.839Z,38.60
2022-12-11T02:59:17.363Z,35.38
2022-12-11T03:00:51.920Z,36.78
2022-12-11T03:02:24.766Z,36.30
2022-12-11T03:03:58.854Z,34.95
2022-12-11T03:05:31.899Z,35.55
2022-12-11T03:07:12.021Z,33.53
2022-12-11T03:08:44.818Z,33.72
2022-12-11T03:10:20.047Z,33.65
2022-12-11T03:11:53.473Z,34.33
2022-12-11T03:13:26.290Z,35.30
2022-12-11T03:15:00.563Z,34.45
2022-12-11T03:16:37.829Z,30.60
2022-12-11T03:18:16.278Z,31.17
2022-12-11T03:19:54.315Z,28.15
2022-12-11T03:21:34.074Z,31.88
2022-12-11T03:23:14.667Z,30.40
2022-12-11T03:24:51.843Z,32.97
2022-12-11T03:26:25.506Z,30.92
2022-12-11T03:28:04.327Z,31.55
2022-12-11T03:29:39.886Z,33.47
2022-12-11T03:31:15.400Z,33.85
2022-12-11T03:32:54.079Z,32.22
2022-12-11T03:34:30.112Z,35.40
2022-12-11T03:36:07.389Z,35.67
2022-12-11T03:37:43.198Z,29.85
2022-12-11T03:39:19.851Z,35.08
2022-12-11T03:40:55.570Z,34.17
2022-12-11T03:42:28.557Z,35.30
2022-12-11T03:44:01.822Z,33.50
2022-12-11T03:45:35.607Z,35.35
2022-12-11T03:47:09.942Z,33.97
2022-12-11T03:48:47.086Z,33.08
2022-12-11T03:50:23.515Z,36.67
2022-12-11T03:51:59.094Z,33.97
2022-12-11T03:53:31.823Z,36.00
2022-12-11T03:55:06.759Z,36.30
2022-12-11T03:56:41.711Z,34.03
2022-12-11T03:58:14.454Z,34.45
2022-12-11T03:59:47.334Z,33.25
2022-12-11T04:01:20.170Z,36.38
2022-12-11T04:03:12.737Z,37.03
2022-12-11T04:04:47.578Z,32.70
2022-12-11T04:06:20.550Z,34.88
2022-12-11T04:07:53.342Z,36.05
2022-12-11T04:09:26.121Z,35.70
2022-12-11T04:11:12.799Z,31.85
2022-12-11T04:12:45.495Z,35.40
2022-12-11T04:14:35.822Z,29.60
2022-12-11T04:16:09.022Z,29.25
2022-12-11T04:17:59.438Z,28.75
2022-12-11T04:19:49.863Z,30.38
2022-12-11T04:21:41.698Z,32.05
2022-12-11T04:23:34.105Z,28.83
2022-12-11T04:25:08.817Z,35.58
2022-12-11T04:26:41.898Z,32.38
2022-12-11T04:28:13.735Z,33.25
2022-12-11T04:29:46.430Z,32.53
2022-12-11T04:31:21.612Z,34.63
2022-12-11T04:32:55.684Z,30.73
2022-12-11T04:34:28.479Z,30.48
2022-12-11T04:36:02.145Z,34.72
2022-12-11T04:37:36.227Z,32.22
2022-12-11T04:39:08.974Z,35.42
2022-12-11T04:40:41.731Z,34.00
2022-12-11T04:42:13.722Z,34.33
2022-12-11T04:43:46.713Z,35.75
2022-12-11T04:45:18.768Z,34.25
2022-12-11T04:46:51.556Z,37.72
2022-12-11T04:48:23.367Z,39.92
2022-12-11T04:49:56.104Z,35.78
2022-12-11T04:51:29.544Z,35.63
2022-12-11T04:53:03.600Z,41.13
2022-12-11T04:54:36.306Z,39.90
2022-12-11T04:56:10.582Z,47.47
2022-12-11T04:57:43.348Z,47.22
2022-12-11T04:59:16.220Z,44.22
2022-12-11T05:00:48.996Z,46.83
2022-12-11T05:02:21.790Z,47.85
2022-12-11T05:03:54.520Z,46.22
2022-12-11T05:05:27.554Z,49.63
2022-12-11T05:06:59.437Z,47.10
2022-12-11T05:08:36.556Z,40.50
2022-12-11T05:10:10.319Z,44.08
2022-12-11T05:11:42.121Z,44.88
2022-12-11T05:13:14.879Z,41.55
2022-12-11T05:14:47.606Z,41.08
2022-12-11T05:16:20.336Z,42.42
2022-12-11T05:17:53.865Z,46.58
2022-12-11T05:19:27.007Z,42.45
2022-12-11T05:21:02.983Z,42.30
2022-12-11T05:22:35.771Z,43.25
2022-12-11T05:24:10.574Z,44.90
2022-12-11T05:25:43.271Z,42.38
2022-12-11T05:27:16.068Z,42.50
2022-12-11T05:28:53.192Z,42.08
2022-12-11T05:30:24.989Z,38.83
2022-12-11T05:31:57.689Z,43.42
2022-12-11T05:33:30.695Z,40.80
2022-12-11T05:35:03.716Z,42.50
2022-12-11T05:36:36.508Z,42.28
2022-12-11T05:38:09.216Z,39.60
2022-12-11T05:39:43.391Z,39.75
2022-12-11T05:41:18.759Z,39.20
2022-12-11T05:42:51.703Z,42.35
2022-12-11T05:44:24.458Z,40.55
2022-12-11T05:45:57.862Z,41.22
2022-12-11T05:47:31.932Z,41.22
2022-12-11T05:49:04.638Z,42.15
2022-12-11T05:50:37.608Z,40.72
2022-12-11T05:52:10.329Z,40.38
2022-12-11T05:53:44.646Z,38.97
2022-12-11T05:55:18.790Z,39.10
2022-12-11T05:56:52.092Z,40.75
2022-12-11T05:58:24.867Z,38.78
2022-12-11T05:59:57.586Z,38.50
2022-12-11T06:01:32.918Z,38.17
2022-12-11T06:03:04.763Z,38.53
2022-12-11T06:04:37.596Z,39.53
2022-12-11T06:06:09.551Z,41.97
2022-12-11T06:07:42.259Z,42.97
2022-12-11T06:09:16.414Z,41.20
2022-12-11T06:10:51.387Z,41.88
2022-12-11T06:12:24.291Z,43.28
2022-12-11T06:13:57.147Z,47.83
2022-12-11T06:15:29.926Z,39.22
2022-12-11T06:17:02.666Z,38.60
2022-12-11T06:18:37.522Z,41.70
2022-12-11T06:20:10.726Z,44.08
2022-12-11T06:21:43.843Z,41.92
2022-12-11T06:23:16.552Z,43.85
2022-12-11T06:24:49.270Z,41.75
2022-12-11T06:26:23.974Z,43.53
2022-12-11T06:27:56.696Z,46.35
2022-12-11T06:29:28.525Z,44.30
2022-12-11T06:31:01.579Z,44.00
2022-12-11T06:32:34.289Z,40.08
2022-12-11T06:34:07.036Z,39.92
2022-12-11T06:35:42.242Z,42.28
2022-12-11T06:37:15.307Z,43.10
2022-12-11T06:38:48.423Z,43.08
2022-12-11T06:40:21.354Z,44.13
2022-12-11T06:41:55.400Z,41.80
2022-12-11T06:43:27.186Z,41.90
2022-12-11T06:45:00.763Z,44.15
2022-12-11T06:46:33.459Z,45.08
2022-12-11T06:48:06.518Z,45.17
2022-12-11T06:49:39.237Z,42.05
2022-12-11T06:51:14.320Z,44.35
2022-12-11T06:52:47.014Z,42.35
2022-12-11T06:54:19.717Z,44.10
2022-12-11T06:55:52.457Z,41.15
2022-12-11T06:57:26.730Z,44.80
2022-12-11T06:59:04.187Z,45.30
2022-12-11T07:00:40.084Z,44.30
2022-12-11T07:02:14.391Z,41.33
2022-12-11T07:03:47.851Z,40.65
2022-12-11T07:05:20.838Z,38.55
2022-12-11T07:06:53.607Z,44.42
2022-12-11T07:08:28.236Z,41.55
2022-12-11T07:10:07.610Z,38.67
2022-12-11T07:11:40.899Z,40.95
2022-12-11T07:13:14.939Z,36.65
2022-12-11T07:14:47.643Z,38.80
2022-12-11T07:16:19.525Z,36.53
2022-12-11T07:17:52.284Z,42.40
2022-12-11T07:19:25.426Z,40.60
2022-12-11T07:20:59.935Z,40.95
2022-12-11T07:22:32.687Z,41.15
2022-12-11T07:24:06.128Z,40.20
2022-12-11T07:25:37.965Z,41.53
2022-12-11T07:27:10.683Z,40.75
2022-12-11T07:28:45.342Z,44.30
2022-12-11T07:30:18.253Z,48.00
2022-12-11T07:31:51.174Z,45.63
2022-12-11T07:33:23.914Z,43.92
2022-12-11T07:34:56.624Z,46.92
2022-12-11T07:36:30.329Z,46.13
2022-12-11T07:38:03.272Z,48.08
2022-12-11T07:39:36.019Z,46.38
2022-12-11T07:41:10.403Z,48.63
2022-12-11T07:42:46.254Z,48.25
2022-12-11T07:44:20.621Z,46.53
2022-12-11T07:45:53.350Z,50.63
2022-12-11T07:47:26.091Z,47.63
2022-12-11T07:49:00.743Z,55.70
2022-12-11T07:50:39.474Z,48.40
2022-12-11T07:52:12.569Z,46.28
2022-12-11T07:53:46.077Z,46.47
2022-12-11T07:55:18.804Z,49.42
2022-12-11T07:56:53.857Z,47.22
2022-12-11T07:58:26.845Z,47.45
2022-12-11T08:00:00.875Z,48.65
2022-12-11T08:01:36.557Z,45.53
2022-12-11T08:03:09.919Z,44.17
2022-12-11T08:04:42.702Z,40.75
2022-12-11T08:06:15.615Z,43.22
2022-12-11T08:07:48.397Z,49.35
2022-12-11T08:09:22.559Z,43.17
2022-12-11T08:10:55.337Z,43.97
2022-12-11T08:12:28.071Z,46.60
2022-12-11T08:14:01.064Z,43.20
2022-12-11T08:15:35.212Z,53.08
2022-12-11T08:17:07.929Z,47.10
2022-12-11T08:18:41.383Z,38.90
2022-12-11T08:20:14.298Z,43.95
2022-12-11T08:21:47.137Z,37.97
2022-12-11T08:23:19.882Z,39.83
2022-12-11T08:24:52.647Z,39.15
2022-12-11T08:26:27.104Z,39.92
2022-12-11T08:27:59.829Z,33.00
2022-12-11T08:29:32.551Z,38.42
2022-12-11T08:31:09.215Z,34.85
2022-12-11T08:32:42.078Z,37.92
2022-12-11T08:34:14.834Z,35.50
2022-12-11T08:35:47.571Z,40.45
2022-12-11T08:37:20.291Z,34.78
2022-12-11T08:38:54.696Z,32.50
2022-12-11T08:40:27.448Z,35.15
2022-12-11T08:42:00.184Z,36.13
2022-12-11T08:43:34.924Z,31.25
2022-12-11T08:45:09.579Z,32.97
2022-12-11T08:46:43.864Z,30.85
2022-12-11T08:48:16.600Z,30.20
2022-12-11T08:49:49.317Z,46.45
2022-12-11T08:51:23.604Z,41.42
2022-12-11T08:52:56.339Z,39.67
2022-12-11T08:54:29.043Z,32.10
2022-12-11T08:56:02.810Z,33.83
2022-12-11T08:57:35.583Z,36.10
2022-12-11T08:59:08.331Z,33.92
2022-12-11T09:00:41.322Z,31.33
2022-12-11T09:02:15.452Z,33.25
2022-12-11T09:03:48.963Z,32.03
2022-12-11T09:05:21.775Z,30.90
2022-12-11T09:06:54.544Z,31.88
2022-12-11T09:08:26.318Z,33.25
2022-12-11T09:09:59.098Z,34.22
2022-12-11T09:11:33.642Z,33.35
2022-12-11T09:13:06.514Z,37.10
2022-12-11T09:14:39.215Z,37.20
2022-12-11T09:16:14.587Z,38.35
2022-12-11T09:17:48.685Z,41.75
2022-12-11T09:19:21.390Z,36.55
2022-12-11T09:21:00.715Z,36.58
2022-12-11T09:22:33.912Z,43.88
2022-12-11T09:24:07.334Z,39.65
2022-12-11T09:25:41.409Z,38.40
2022-12-11T09:27:14.180Z,39.53
2022-12-11T09:28:47.435Z,36.97
2022-12-11T09:30:20.261Z,39.13
2022-12-11T09:31:52.976Z,39.33
2022-12-11T09:33:27.035Z,40.55
2022-12-11T09:34:59.781Z,39.88
2022-12-11T09:36:32.771Z,35.60
2022-12-11T09:38:05.806Z,36.35
2022-12-11T09:39:38.567Z,37.88
2022-12-11T09:41:27.510Z,37.95
2022-12-11T09:43:07.243Z,39.03
2022-12-11T09:44:44.011Z,37.15
2022-12-11T09:46:18.238Z,37.00
2022-12-11T09:47:53.091Z,36.03
2022-12-11T09:49:34.366Z,35.67
2022-12-11T09:51:15.187Z,35.28
2022-12-11T09:53:03.874Z,38.05
2022-12-11T09:54:37.062Z,36.78
2022-12-11T09:56:17.503Z,37.97
2022-12-11T09:58:01.783Z,36.17
2022-12-11T09:59:45.519Z,40.53
2022-12-11T10:01:27.371Z,40.10
2022-12-11T10:03:32.821Z,37.05
2022-12-11T10:05:16.358Z,40.85
2022-12-11T10:06:56.616Z,39.97
2022-12-11T10:08:34.209Z,36.55
2022-12-11T10:10:17.334Z,35.58
2022-12-11T10:12:03.808Z,36.65
2022-12-11T10:13:43.859Z,37.05
2022-12-11T10:15:26.962Z,37.15
2022-12-11T10:17:05.087Z,40.03
2022-12-11T10:18:38.496Z,39.17
2022-12-11T10:20:23.044Z,37.17
2022-12-11T10:21:56.622Z,36.15
2022-12-11T10:23:35.553Z,36.45
2022-12-11T10:25:14.832Z,33.10
2022-12-11T10:26:48.221Z,28.80
2022-12-11T10:28:22.090Z,33.40
2022-12-11T10:30:01.655Z,30.40
2022-12-11T10:31:46.789Z,32.90
2022-12-11T10:33:23.072Z,28.60
2022-12-11T10:35:00.992Z,28.42
2022-12-11T10:36:38.705Z,29.83
2022-12-11T10:38:17.568Z,33.63
2022-12-11T10:39:50.295Z,32.53
2022-12-11T10:41:25.554Z,36.47
2022-12-11T10:42:58.313Z,39.53
2022-12-11T10:44:32.542Z,37.05
2022-12-11T10:46:07.137Z,43.17
2022-12-11T10:47:39.926Z,61.75
2022-12-11T10:49:23.296Z,100.22
2022-12-11T10:51:00.090Z,49.25
2022-12-11T10:52:38.196Z,81.97
2022-12-11T10:54:27.456Z,68.90
2022-12-11T10:56:01.333Z,57.90
2022-12-11T10:57:36.612Z,44.47
2022-12-11T10:59:24.185Z,34.17
2022-12-11T11:01:16.043Z,49.05
2022-12-11T11:02:48.948Z,45.38
2022-12-11T11:04:28.678Z,45.85
2022-12-11T11:06:07.047Z,45.20
2022-12-11T11:07:41.186Z,40.53
2022-12-11T11:09:30.584Z,38.88
2022-12-11T11:11:03.287Z,58.42
2022-12-11T11:12:40.164Z,48.17
2022-12-11T11:14:15.698Z,35.78
2022-12-11T11:15:48.839Z,28.20
2022-12-11T11:17:21.787Z,31.33
2022-12-11T11:18:56.734Z,32.20
2022-12-11T11:20:31.100Z,31.60
2022-12-11T11:22:07.948Z,30.98
2022-12-11T11:23:46.259Z,35.60
2022-12-11T11:25:22.987Z,32.97
2022-12-11T11:27:12.703Z,38.25
2022-12-11T11:28:51.107Z,33.10
2022-12-11T11:30:25.870Z,32.80
2022-12-11T11:32:01.929Z,32.90
2022-12-11T11:33:37.726Z,31.13
2022-12-11T11:35:20.021Z,31.45
2022-12-11T11:36:58.671Z,32.95
2022-12-11T11:38:35.948Z,32.58
2022-12-11T11:40:17.144Z,32.38
2022-12-11T11:41:58.096Z,34.20
2022-12-11T11:43:38.691Z,32.05
2022-12-11T11:45:17.210Z,37.33
2022-12-11T11:46:56.930Z,33.85
2022-12-11T11:48:38.268Z,34.13
2022-12-11T11:50:16.799Z,31.55
2022-12-11T11:51:55.008Z,33.30
2022-12-11T11:53:32.983Z,35.22
2022-12-11T11:55:22.010Z,34.47
2022-12-11T11:56:56.670Z,34.72
2022-12-11T11:58:37.973Z,34.95
2022-12-11T12:00:20.672Z,31.88
2022-12-11T12:01:56.871Z,32.42
2022-12-11T12:03:30.334Z,35.88
2022-12-11T12:05:04.706Z,36.88
2022-12-11T12:07:04.728Z,32.80
2022-12-11T12:08:46.198Z,33.35
2022-12-11T12:10:27.334Z,33.78
2022-12-11T12:12:10.297Z,32.28
2022-12-11T12:13:50.193Z,34.95
2022-12-11T12:15:33.592Z,33.70
2022-12-11T12:17:19.445Z,32.83
2022-12-11T12:19:00.545Z,33.30
2022-12-11T12:20:44.168Z,36.63
2022-12-11T12:22:28.627Z,35.63
2022-12-11T12:24:16.076Z,39.15
2022-12-11T12:25:55.495Z,38.00
2022-12-11T12:27:52.819Z,36.65
2022-12-11T12:29:41.196Z,40.13
2022-12-11T12:31:36.472Z,33.10
2022-12-11T12:33:24.312Z,38.60
2022-12-11T12:35:11.563Z,40.88
2022-12-11T12:36:52.285Z,37.60
2022-12-11T12:38:36.010Z,36.03
2022-12-11T12:40:17.535Z,31.45
2022-12-11T12:42:01.257Z,32.83
2022-12-11T12:43:55.753Z,33.72
2022-12-11T12:45:33.018Z,34.53
2022-12-11T12:47:10.370Z,36.67
2022-12-11T12:48:43.160Z,38.83
2022-12-11T12:50:19.458Z,40.30
2022-12-11T12:51:52.929Z,42.28
2022-12-11T12:53:30.082Z,42.97
2022-12-11T12:55:16.455Z,41.28
2022-12-11T12:56:51.480Z,39.00
2022-12-11T12:58:28.406Z,45.90
2022-12-11T13:00:01.189Z,40.25
2022-12-11T13:01:34.013Z,61.22
2022-12-11T13:03:15.817Z,38.95
2022-12-11T13:04:58.904Z,39.63
2022-12-11T13:06:38.514Z,43.40
2022-12-11T13:08:12.789Z,41.15
2022-12-11T13:09:58.762Z,38.30
2022-12-11T13:11:36.853Z,38.42
2022-12-11T13:13:32.578Z,39.47
2022-12-11T13:15:05.686Z,35.70
2022-12-11T13:16:40.112Z,40.35
2022-12-11T13:18:32.490Z,38.65
2022-12-11T13:20:18.861Z,38.42
2022-12-11T13:21:57.323Z,40.63
2022-12-11T13:23:32.755Z,38.72
2022-12-11T13:25:22.013Z,39.70
2022-12-11T13:26:54.844Z,41.88
2022-12-11T13:28:32.622Z,43.35
2022-12-11T13:30:07.628Z,43.83
2022-12-11T13:31:45.003Z,41.97
2022-12-11T13:33:19.988Z,40.95
2022-12-11T13:34:56.578Z,40.20
2022-12-11T13:36:33.307Z,44.05
2022-12-11T13:38:09.253Z,39.72
2022-12-11T13:39:47.967Z,44.15
2022-12-11T13:41:21.761Z,56.35
2022-12-11T13:42:56.655Z,42.28
2022-12-11T13:44:33.874Z,40.00
2022-12-11T13:46:09.895Z,42.95
2022-12-11T13:47:42.815Z,42.45
2022-12-11T13:49:26.573Z,41.65
2022-12-11T13:51:00.435Z,43.67
2022-12-11T13:52:33.148Z,43.65
2022-12-11T13:54:17.194Z,36.75
2022-12-11T13:55:58.194Z,45.10
2022-12-11T13:57:30.955Z,38.33
2022-12-11T13:59:03.668Z,41.45
2022-12-11T14:00:37.764Z,42.38
2022-12-11T14:02:18.867Z,42.08
2022-12-11T14:03:56.244Z,42.47
2022-12-11T14:05:30.139Z,40.38
2022-12-11T14:07:03.607Z,37.33
2022-12-11T14:08:39.058Z,41.33
2022-12-11T14:10:18.772Z,45.80
2022-12-11T14:11:56.856Z,42.72
2022-12-11T14:13:34.306Z,42.80
2022-12-11T14:15:07.866Z,40.13
2022-12-11T14:16:42.313Z,39.42
2022-12-11T14:18:18.714Z,41.35
2022-12-11T14:19:51.632Z,39.53
2022-12-11T14:21:26.185Z,41.13
2022-12-11T14:23:06.323Z,41.40
2022-12-11T14:24:49.869Z,41.50
2022-12-11T14:26:25.166Z,40.25
2022-12-11T14:27:58.267Z,41.80
2022-12-11T14:29:32.777Z,45.88
2022-12-11T14:31:06.644Z,46.47
2022-12-11T14:32:45.719Z,44.10
2022-12-11T14:34:21.552Z,51.53
2022-12-11T14:35:56.524Z,47.45
2022-12-11T14:37:29.567Z,47.55
2022-12-11T14:39:04.979Z,46.22
2022-12-11T14:40:41.050Z,47.90
2022-12-11T14:42:18.555Z,52.75
2022-12-11T14:43:55.166Z,49.10
2022-12-11T14:45:34.445Z,47.20
2022-12-11T14:47:15.460Z,49.22
2022-12-11T14:49:00.429Z,51.03
2022-12-11T14:50:39.041Z,48.67
2022-12-11T14:52:17.745Z,48.95
2022-12-11T14:53:53.372Z,52.67
2022-12-11T14:55:29.433Z,47.28
2022-12-11T14:57:06.127Z,48.55
2022-12-11T14:58:43.721Z,50.72
2022-12-11T15:00:27.979Z,48.40
2022-12-11T15:02:03.714Z,49.53
2022-12-11T15:03:38.604Z,49.10
2022-12-11T15:05:19.016Z,50.03
2022-12-11T15:06:52.686Z,49.50
2022-12-11T15:08:28.573Z,48.40
2022-12-11T15:10:01.477Z,53.55
2022-12-11T15:11:34.226Z,49.25
2022-12-11T15:13:08.398Z,52.03
2022-12-11T15:14:47.518Z,49.95
2022-12-11T15:16:22.346Z,52.83
2022-12-11T15:17:55.233Z,52.78
2022-12-11T15:19:32.295Z,51.25
2022-12-11T15:21:09.854Z,50.53
2022-12-11T15:22:44.955Z,52.88
2022-12-11T15:24:31.464Z,55.78
2022-12-11T15:26:04.260Z,53.72
2022-12-11T15:27:39.350Z,54.95
2022-12-11T15:29:26.779Z,58.35
2022-12-11T15:31:01.727Z,54.55
2022-12-11T15:32:34.515Z,52.17
2022-12-11T15:34:22.742Z,57.50
2022-12-11T15:35:58.116Z,54.80
2022-12-11T15:37:36.068Z,56.47
2022-12-11T15:39:09.808Z,50.95
2022-12-11T15:40:42.560Z,61.30
2022-12-11T15:42:19.507Z,56.83
2022-12-11T15:43:58.549Z,60.47
2022-12-11T15:45:31.979Z,57.30
2022-12-11T15:47:13.132Z,60.50
2022-12-11T15:48:45.863Z,56.45
2022-12-11T15:50:20.801Z,57.53
2022-12-11T15:51:54.450Z,55.60
2022-12-11T15:53:28.504Z,53.42
2022-12-11T15:55:01.232Z,56.58
2022-12-11T15:56:33.939Z,51.53
2022-12-11T15:58:10.170Z,55.22
2022-12-11T15:59:43.003Z,56.65
2022-12-11T16:01:15.821Z,56.80
2022-12-11T16:02:48.831Z,58.90
2022-12-11T16:04:21.575Z,55.50
2022-12-11T16:05:54.631Z,57.03
2022-12-11T16:07:27.726Z,56.40
2022-12-11T16:09:03.938Z,57.35
2022-12-11T16:10:37.525Z,54.38
2022-12-11T16:12:11.002Z,52.17
2022-12-11T16:13:43.742Z,55.10
2022-12-11T16:15:23.124Z,54.03
2022-12-11T16:16:56.669Z,53.30
2022-12-11T16:18:29.391Z,52.05
2022-12-11T16:20:02.127Z,53.85
2022-12-11T16:21:34.842Z,51.40
2022-12-11T16:23:07.678Z,57.05
2022-12-11T16:24:42.198Z,61.45
2022-12-11T16:26:15.697Z,65.28
2022-12-11T16:27:48.494Z,59.55
2022-12-11T16:29:21.214Z,55.78
2022-12-11T16:30:53.925Z,54.55
2022-12-11T16:32:26.648Z,55.35
2022-12-11T16:33:59.393Z,55.40
2022-12-11T16:35:32.674Z,56.63
2022-12-11T16:37:05.925Z,51.63
2022-12-11T16:38:38.641Z,52.92
2022-12-11T16:40:14.442Z,58.97
2022-12-11T16:41:47.203Z,51.47
2022-12-11T16:43:19.940Z,59.35
2022-12-11T16:44:52.634Z,50.15
2022-12-11T16:46:25.874Z,51.53
2022-12-11T16:47:58.624Z,52.63
2022-12-11T16:49:32.123Z,46.67
2022-12-11T16:51:04.916Z,52.97
2022-12-11T16:52:37.667Z,53.40
2022-12-11T16:54:10.492Z,52.60
2022-12-11T16:55:44.522Z,53.83
2022-12-11T16:57:17.242Z,60.13
2022-12-11T16:58:49.958Z,62.38
2022-12-11T17:00:22.742Z,64.65
2022-12-11T17:01:55.561Z,60.67
2022-12-11T17:03:28.733Z,56.03
2022-12-11T17:05:01.481Z,59.10
2022-12-11T17:06:35.038Z,59.95
2022-12-11T17:08:08.746Z,59.47
2022-12-11T17:09:41.478Z,57.92
2022-12-11T17:11:17.848Z,60.90
2022-12-11T17:12:50.675Z,57.13
2022-12-11T17:14:23.394Z,57.35
2022-12-11T17:15:56.129Z,59.55
2022-12-11T17:17:28.902Z,54.67
2022-12-11T17:19:02.951Z,56.35
2022-12-11T17:20:35.765Z,56.55
2022-12-11T17:22:08.492Z,54.03
2022-12-11T17:23:41.847Z,53.05
2022-12-11T17:25:16.492Z,52.97
2022-12-11T17:26:50.548Z,50.90
2022-12-11T17:28:23.276Z,51.70
2022-12-11T17:29:56.105Z,52.42
2022-12-11T17:31:29.204Z,48.85
2022-12-11T17:33:02.748Z,57.95
2022-12-11T17:34:38.464Z,58.22
2022-12-11T17:36:14.340Z,54.63
2022-12-11T17:37:47.240Z,53.50
2022-12-11T17:39:20.003Z,55.35
2022-12-11T17:40:52.740Z,49.55
2022-12-11T17:42:26.809Z,53.38
2022-12-11T17:43:59.684Z,56.75
2022-12-11T17:45:32.427Z,60.10
2022-12-11T17:47:10.832Z,57.88
2022-12-11T17:48:44.041Z,62.97
2022-12-11T17:50:16.827Z,65.25
2022-12-11T17:51:49.538Z,64.00
2022-12-11T17:53:23.211Z,59.47
2022-12-11T17:54:56.312Z,52.45
2022-12-11T17:56:29.043Z,55.10
2022-12-11T17:58:03.106Z,55.17
2022-12-11T17:59:35.851Z,57.42
2022-12-11T18:01:10.777Z,53.00
2022-12-11T18:02:43.534Z,52.45
2022-12-11T18:04:16.310Z,56.85
2022-12-11T18:05:51.102Z,55.65
2022-12-11T18:07:23.836Z,54.72
2022-12-11T18:08:56.840Z,53.22
2022-12-11T18:10:29.576Z,53.50
2022-12-11T18:12:02.301Z,52.40
2022-12-11T18:13:36.446Z,52.78
2022-12-11T18:15:10.907Z,54.70
2022-12-11T18:16:43.797Z,56.15
2022-12-11T18:18:16.542Z,57.47
2022-12-11T18:19:49.259Z,60.50
2022-12-11T18:21:24.828Z,57.42
2022-12-11T18:22:57.610Z,60.95
2022-12-11T18:24:31.867Z,57.25
2022-12-11T18:26:04.715Z,59.63
2022-12-11T18:27:38.379Z,57.42
2022-12-11T18:29:12.940Z,56.80
2022-12-11T18:30:45.981Z,54.10
2022-12-11T18:32:18.722Z,54.10
2022-12-11T18:33:51.814Z,55.22
2022-12-11T18:35:25.344Z,54.22
2022-12-11T18:36:58.064Z,62.60
2022-12-11T18:38:30.772Z,66.30
2022-12-11T18:40:03.540Z,59.75
2022-12-11T18:41:36.271Z,60.40
2022-12-11T18:43:08.954Z,67.20
2022-12-11T18:44:43.291Z,59.33
2022-12-11T18:46:18.017Z,61.10
2022-12-11T18:47:51.807Z,57.72
2022-12-11T18:49:24.554Z,62.38
2022-12-11T18:50:57.291Z,67.28
2022-12-11T18:52:30.000Z,67.93
2022-12-11T18:54:02.725Z,64.75
2022-12-11T18:55:35.459Z,61.53
2022-12-11T18:57:08.569Z,61.33
2022-12-11T18:58:41.696Z,61.72
2022-12-11T19:00:17.368Z,63.40
2022-12-11T19:01:50.129Z,59.38
2022-12-11T19:03:22.862Z,57.33
2022-12-11T19:04:55.580Z,59.58
2022-12-11T19:06:30.316Z,56.40
2022-12-11T19:08:03.441Z,58.88
2022-12-11T19:09:38.484Z,60.05
2022-12-11T19:11:15.772Z,61.15
2022-12-11T19:12:49.272Z,60.75
2022-12-11T19:14:22.251Z,62.50
2022-12-11T19:15:56.381Z,61.67
2022-12-11T19:17:29.216Z,64.85
2022-12-11T19:19:05.483Z,64.50
2022-12-11T19:20:48.922Z,63.67
2022-12-11T19:22:22.794Z,61.65
2022-12-11T19:23:55.529Z,59.90
2022-12-11T19:25:28.328Z,59.85
2022-12-11T19:27:01.525Z,65.75
2022-12-11T19:28:34.814Z,71.22
2022-12-11T19:30:08.497Z,66.90
2022-12-11T19:31:42.640Z,65.55
2022-12-11T19:33:15.873Z,65.45
2022-12-11T19:34:49.345Z,63.60
2022-12-11T19:36:24.122Z,60.70
2022-12-11T19:37:56.849Z,64.07
2022-12-11T19:39:29.823Z,63.55
2022-12-11T19:41:06.668Z,60.80
2022-12-11T19:42:39.638Z,63.17
2022-12-11T19:44:12.696Z,58.22
2022-12-11T19:45:45.830Z,60.97
2022-12-11T19:47:20.305Z,59.13
2022-12-11T19:48:54.867Z,57.00
2022-12-11T19:50:27.690Z,60.42
2022-12-11T19:52:00.426Z,65.03
2022-12-11T19:53:34.392Z,63.72
2022-12-11T19:55:08.504Z,55.97
2022-12-11T19:56:41.838Z,72.40
2022-12-11T19:58:15.539Z,68.32
2022-12-11T19:59:52.570Z,61.63
2022-12-11T20:01:30.910Z,71.43
2022-12-11T20:03:05.447Z,64.47
2022-12-11T20:04:38.347Z,63.47
2022-12-11T20:06:11.069Z,59.90
2022-12-11T20:07:45.468Z,64.13
2022-12-11T20:09:18.869Z,62.97
2022-12-11T20:10:51.694Z,64.05
2022-12-11T20:12:24.660Z,72.60
2022-12-11T20:13:57.440Z,69.68
2022-12-11T20:15:31.834Z,70.10
2022-12-11T20:17:14.519Z,67.80
2022-12-11T20:18:49.559Z,66.85
2022-12-11T20:20:22.674Z,59.65
2022-12-11T20:21:55.860Z,63.85
2022-12-11T20:23:28.624Z,62.75
2022-12-11T20:25:01.340Z,55.58
2022-12-11T20:26:36.369Z,60.25
2022-12-11T20:28:09.093Z,65.55
2022-12-11T20:29:41.795Z,60.45
2022-12-11T20:31:20.391Z,60.15